createdAt,value
2019-05-18T00:00:10.569Z,31.35
2019-05-18T00:02:43.496Z,28.23
2019-05-18T00:05:14.894Z,30.85
2019-05-18T00:07:53.649Z,30.80
2019-05-18T00:10:26.920Z,29.23
2019-05-18T00:13:00.912Z,29.90
2019-05-18T00:15:42.975Z,33.28
2019-05-18T00:18:19.525Z,32.05
2019-05-18T00:20:56.079Z,33.33
2019-05-18T00:23:29.179Z,30.10
2019-05-18T00:26:00.610Z,32.17
2019-05-18T00:28:39.683Z,32.88
2019-05-18T00:31:12.360Z,31.55
2019-05-18T00:33:44.314Z,30.65
2019-05-18T00:36:28.575Z,33.30
2019-05-18T00:39:01.580Z,32.20
2019-05-18T00:41:36.938Z,34.97
2019-05-18T00:44:09.827Z,31.67
2019-05-18T00:46:48.152Z,34.70
2019-05-18T00:49:22.026Z,37.13
2019-05-18T00:51:54.082Z,34.88
2019-05-18T00:54:26.580Z,36.48
2019-05-18T00:57:00.388Z,35.88
2019-05-18T01:00:07.367Z,35.78
2019-05-18T01:02:49.006Z,36.58
2019-05-18T01:05:22.552Z,35.40
2019-05-18T01:08:28.325Z,37.27
2019-05-18T01:11:12.956Z,34.97
2019-05-18T01:13:58.357Z,37.00
2019-05-18T01:16:50.081Z,39.80
2019-05-18T01:19:40.086Z,37.47
2019-05-18T01:22:22.950Z,41.73
2019-05-18T01:25:06.241Z,40.12
2019-05-18T01:28:37.242Z,36.67
2019-05-18T01:35:49.950Z,34.50
2019-05-18T01:38:34.475Z,33.50
2019-05-18T01:41:08.056Z,35.47
2019-05-18T01:43:58.368Z,36.53
2019-05-18T01:46:35.276Z,36.17
2019-05-18T01:49:06.454Z,34.33
2019-05-18T01:51:48.322Z,37.10
2019-05-18T01:54:22.822Z,38.47
2019-05-18T01:56:54.573Z,38.43
2019-05-18T01:59:38.811Z,38.83
2019-05-18T02:02:17.596Z,34.87
2019-05-18T02:04:55.925Z,36.17
2019-05-18T02:07:35.994Z,36.97
2019-05-18T02:10:10.572Z,37.57
2019-05-18T02:12:42.226Z,38.33
2019-05-18T02:15:13.641Z,37.03
2019-05-18T02:17:44.851Z,35.97
2019-05-18T02:20:18.081Z,38.63
2019-05-18T02:23:01.661Z,36.57
2019-05-18T02:25:44.020Z,34.40
2019-05-18T02:28:15.036Z,39.87
2019-05-18T02:33:58.825Z,39.57
2019-05-18T02:36:49.158Z,36.40
2019-05-18T02:39:54.624Z,37.00
2019-05-18T02:43:00.680Z,38.33
2019-05-18T02:46:12.420Z,39.23
2019-05-18T02:48:50.166Z,39.53
2019-05-18T02:51:19.869Z,40.13
2019-05-18T02:53:53.121Z,39.80
2019-05-18T02:56:25.220Z,36.67
2019-05-18T02:59:03.271Z,37.60
2019-05-18T03:01:37.965Z,38.90
2019-05-18T03:04:11.188Z,37.60
2019-05-18T03:06:49.232Z,41.20
2019-05-18T03:09:38.208Z,40.60
2019-05-18T03:12:10.648Z,42.30
2019-05-18T03:14:47.082Z,44.80
2019-05-18T03:17:29.955Z,54.43
2019-05-18T03:20:11.214Z,57.13
2019-05-18T03:22:45.096Z,53.80
2019-05-18T03:25:17.571Z,53.00
2019-05-18T03:27:49.132Z,54.33
2019-05-18T03:30:32.693Z,57.50
2019-05-18T03:33:11.396Z,55.47
2019-05-18T03:35:43.825Z,50.93
2019-05-18T03:38:17.739Z,52.23
2019-05-18T03:41:01.368Z,55.43
2019-05-18T03:43:33.513Z,51.80
2019-05-18T03:46:10.102Z,54.60
2019-05-18T03:48:56.063Z,48.30
2019-05-18T03:52:13.409Z,47.47
2019-05-18T03:54:47.939Z,45.63
2019-05-18T03:57:21.303Z,45.43
2019-05-18T04:00:17.500Z,46.27
2019-05-18T04:03:10.508Z,52.10
2019-05-18T04:05:48.149Z,51.17
2019-05-18T04:08:30.053Z,48.13
2019-05-18T04:11:03.238Z,58.23
2019-05-18T04:13:35.880Z,57.87
2019-05-18T04:16:11.973Z,52.57
2019-05-18T04:18:45.683Z,58.77
2019-05-18T04:21:21.362Z,58.20
2019-05-18T04:24:22.954Z,57.87
2019-05-18T04:26:54.338Z,54.10
2019-05-18T04:29:25.087Z,55.43
2019-05-18T04:31:55.897Z,59.03
2019-05-18T04:34:26.804Z,58.03
2019-05-18T04:36:57.599Z,61.53
2019-05-18T04:39:28.420Z,58.03
2019-05-18T04:41:59.215Z,57.30
2019-05-18T04:44:30.063Z,58.57
2019-05-18T04:47:01.134Z,54.50
2019-05-18T04:49:32.217Z,56.33
2019-05-18T04:52:03.112Z,50.80
2019-05-18T04:54:34.406Z,52.20
2019-05-18T04:57:05.278Z,52.73
2019-05-18T04:59:37.033Z,50.47
2019-05-18T05:02:07.829Z,48.60
2019-05-18T05:04:38.585Z,52.37
2019-05-18T05:07:09.737Z,53.50
2019-05-18T05:09:40.856Z,51.90
2019-05-18T05:12:11.692Z,51.87
2019-05-18T05:14:43.003Z,52.00
2019-05-18T05:17:13.727Z,49.73
2019-05-18T05:19:44.755Z,53.00
2019-05-18T05:22:15.513Z,48.42
2019-05-18T05:24:46.226Z,51.70
2019-05-18T05:27:17.126Z,54.07
2019-05-18T05:29:47.828Z,53.33
2019-05-18T05:32:18.609Z,48.23
2019-05-18T05:34:49.474Z,48.30
2019-05-18T05:37:20.285Z,47.15
2019-05-18T05:39:51.002Z,50.58
2019-05-18T05:42:21.831Z,53.02
2019-05-18T05:44:52.555Z,49.30
2019-05-18T05:47:23.322Z,54.33
2019-05-18T05:49:54.850Z,49.90
2019-05-18T05:52:25.631Z,43.50
2019-05-18T05:54:56.900Z,47.30
2019-05-18T05:57:27.755Z,42.88
2019-05-18T05:59:58.939Z,44.98
2019-05-18T06:02:29.755Z,42.65
2019-05-18T06:05:00.895Z,42.23
2019-05-18T06:07:31.838Z,39.73
2019-05-18T06:10:02.680Z,39.10
2019-05-18T06:12:33.468Z,41.65
2019-05-18T06:15:04.719Z,36.03
2019-05-18T06:17:35.900Z,36.45
2019-05-18T06:20:06.821Z,36.03
2019-05-18T06:22:38.261Z,32.42
2019-05-18T06:25:09.296Z,33.10
2019-05-18T06:27:40.034Z,30.68
2019-05-18T06:30:11.024Z,27.58
2019-05-18T06:32:42.156Z,25.80
2019-05-18T06:35:13.167Z,20.82
2019-05-18T06:37:43.967Z,20.75
2019-05-18T06:40:14.791Z,21.30
2019-05-18T06:42:45.456Z,22.05
2019-05-18T06:45:16.368Z,20.25
2019-05-18T06:47:48.460Z,21.82
2019-05-18T06:50:24.293Z,22.75
2019-05-18T06:52:55.133Z,20.45
2019-05-18T06:55:27.050Z,22.05
2019-05-18T06:57:58.998Z,16.42
2019-05-18T07:00:29.753Z,16.12
2019-05-18T07:03:00.488Z,20.88
2019-05-18T07:05:31.259Z,21.95
2019-05-18T07:08:01.985Z,18.87
2019-05-18T07:10:33.093Z,17.10
2019-05-18T07:13:03.891Z,16.30
2019-05-18T07:15:36.941Z,19.00
2019-05-18T07:18:07.832Z,21.02
2019-05-18T07:20:38.629Z,22.30
2019-05-18T07:23:09.762Z,21.00
2019-05-18T07:25:40.576Z,21.60
2019-05-18T07:28:11.382Z,20.20
2019-05-18T07:30:42.176Z,20.02
2019-05-18T07:33:12.928Z,21.27
2019-05-18T07:35:43.627Z,17.90
2019-05-18T07:38:14.633Z,20.08
2019-05-18T07:40:46.811Z,17.02
2019-05-18T07:43:17.835Z,17.55
2019-05-18T07:45:48.577Z,17.60
2019-05-18T07:48:19.795Z,18.98
2019-05-18T07:50:51.200Z,17.40
2019-05-18T07:53:22.487Z,18.40
2019-05-18T07:55:53.216Z,16.00
2019-05-18T07:58:24.006Z,15.00
2019-05-18T08:00:54.723Z,16.00
2019-05-18T08:03:25.506Z,16.60
2019-05-18T08:05:56.326Z,16.48
2019-05-18T08:08:27.027Z,15.00
2019-05-18T08:10:57.855Z,13.65
2019-05-18T08:13:32.104Z,12.82
2019-05-18T08:16:02.925Z,12.03
2019-05-18T08:18:33.830Z,12.00
2019-05-18T08:21:04.652Z,11.57
2019-05-18T08:23:35.642Z,11.45
2019-05-18T08:26:06.483Z,11.22
2019-05-18T08:28:37.326Z,10.90
2019-05-18T08:31:08.305Z,11.68
2019-05-18T08:33:39.202Z,12.23
2019-05-18T08:36:10.011Z,9.98
2019-05-18T08:38:40.784Z,12.68
2019-05-18T08:41:12.399Z,10.00
2019-05-18T08:43:43.483Z,11.33
2019-05-18T08:46:14.164Z,11.50
2019-05-18T08:48:44.965Z,10.23
2019-05-18T08:51:15.793Z,12.93
2019-05-18T08:53:47.450Z,9.68
2019-05-18T08:56:18.213Z,11.45
2019-05-18T08:58:49.058Z,10.53
